Time;durP1;ratioP1;P1;durP2;ratioP2;P2;SDS_P1;SDS_P2;PMS_P1;PMS_P2;Temp;Humidity;BMP_temperature;BMP_pressure;BME280_temperature;BME280_humidity;BME280_pressure;Samples;Min_cycle;Max_cycle;Signal;HPM_P1;HPM_P2
2022/05/24 00:01:08;;;;;;;4.28;2.53;;;;;;;;;;5052689;28;20547;-58
2022/05/24 00:03:33;;;;;;;5.85;2.40;;;;;;;;;;5053420;28;20036;-57
2022/05/24 00:05:59;;;;;;;7.35;2.75;;;;;;;;;;5047883;28;20090;-58
2022/05/24 00:08:24;;;;;;;4.90;2.80;;;;;;;;;;5047450;28;20142;-58
2022/05/24 00:10:50;;;;;;;3.88;2.78;;;;;;;;;;5049803;28;20055;-60
2022/05/24 00:13:16;;;;;;;4.68;2.70;;;;;;;;;;5053552;28;20437;-58
2022/05/24 00:15:41;;;;;;;9.23;2.75;;;;;;;;;;5046960;28;20391;-58
2022/05/24 00:18:13;;;;;;;7.30;2.40;;;;;;;;;;5046776;28;20104;-59
2022/05/24 00:20:41;;;;;;;7.60;2.75;;;;;;;;;;5046667;28;20037;-58
2022/05/24 00:23:08;;;;;;;6.88;2.45;;;;;;;;;;5046599;28;20063;-58
2022/05/24 00:25:36;;;;;;;3.97;2.40;;;;;;;;;;5045417;28;20036;-58
2022/05/24 00:28:03;;;;;;;6.97;2.50;;;;;;;;;;5045193;28;20614;-59
2022/05/24 00:30:28;;;;;;;6.78;2.67;;;;;;;;;;5052176;28;20040;-58
2022/05/24 00:32:54;;;;;;;2.67;2.45;;;;;;;;;;5049074;28;20044;-58
2022/05/24 00:35:20;;;;;;;5.47;2.50;;;;;;;;;;5043336;28;20021;-58
2022/05/24 00:37:47;;;;;;;4.80;2.55;;;;;;;;;;5048399;28;20115;-59
2022/05/24 00:40:24;;;;;;;3.00;2.58;;;;;;;;;;5051009;28;20400;-58
2022/05/24 00:42:51;;;;;;;7.28;3.45;;;;;;;;;;5045410;28;20053;-59
2022/05/24 00:45:30;;;;;;;8.60;3.50;;;;;;;;;;5052040;28;20103;-59
2022/05/24 00:48:02;;;;;;;7.20;2.85;;;;;;;;;;5047310;28;20115;-58
2022/05/24 00:50:39;;;;;;;7.65;3.08;;;;;;;;;;5054828;28;20055;-58
2022/05/24 00:53:15;;;;;;;9.93;3.45;;;;;;;;;;5049096;28;20033;-58
2022/05/24 00:55:47;;;;;;;4.63;2.80;;;;;;;;;;5047270;28;20025;-58
2022/05/24 00:58:40;;;;;;;7.57;2.80;;;;;;;;;;5050501;28;20036;-57
2022/05/24 01:01:20;;;;;;;10.85;3.22;;;;;;;;;;5047994;28;20214;-58
2022/05/24 01:03:46;;;;;;;4.05;2.70;;;;;;;;;;5055727;28;20340;-58
2022/05/24 01:06:11;;;;;;;6.68;2.28;;;;;;;;;;5052713;28;20033;-57
2022/05/24 01:08:37;;;;;;;3.95;2.10;;;;;;;;;;5050516;28;20021;-58
2022/05/24 01:11:03;;;;;;;5.63;2.03;;;;;;;;;;5057259;28;20029;-59
2022/05/24 01:13:31;;;;;;;4.00;1.90;;;;;;;;;;5048607;28;20025;-58
2022/05/24 01:15:56;;;;;;;3.90;2.25;;;;;;;;;;5050644;28;20434;-58
2022/05/24 01:18:24;;;;;;;3.40;1.70;;;;;;;;;;5048967;28;20032;-58
2022/05/24 01:21:03;;;;;;;3.17;1.60;;;;;;;;;;5050465;28;20421;-59
2022/05/24 01:23:28;;;;;;;3.33;1.90;;;;;;;;;;5047913;28;20439;-58
2022/05/24 01:26:03;;;;;;;2.03;1.70;;;;;;;;;;5042822;28;20025;-59
2022/05/24 01:28:40;;;;;;;3.05;1.90;;;;;;;;;;5050825;28;20387;-58
2022/05/24 01:31:06;;;;;;;2.28;1.60;;;;;;;;;;5048757;28;20036;-59
2022/05/24 01:36:18;;;;;;;3.85;1.50;;;;;;;;;;5048559;28;20040;-58
2022/05/24 01:38:57;;;;;;;3.13;1.60;;;;;;;;;;5043954;28;20484;-58
2022/05/24 01:41:47;;;;;;;1.80;1.58;;;;;;;;;;5052694;28;20492;-58
2022/05/24 01:44:21;;;;;;;2.83;1.38;;;;;;;;;;5053018;28;20150;-59
2022/05/24 01:46:47;;;;;;;2.05;1.30;;;;;;;;;;5047198;28;20035;-59
2022/05/24 01:49:21;;;;;;;3.13;1.40;;;;;;;;;;5051048;28;20030;-59
2022/05/24 01:52:12;;;;;;;1.15;1.05;;;;;;;;;;5048798;28;20262;-59
2022/05/24 01:54:45;;;;;;;1.95;1.27;;;;;;;;;;5052515;28;20044;-58
2022/05/24 01:57:31;;;;;;;3.88;1.33;;;;;;;;;;5052853;28;20115;-59
2022/05/24 01:59:58;;;;;;;1.25;1.10;;;;;;;;;;5048754;28;20052;-58
2022/05/24 02:02:26;;;;;;;1.40;1.30;;;;;;;;;;5048744;28;20087;-58
2022/05/24 02:04:52;;;;;;;1.65;1.17;;;;;;;;;;5043411;28;20025;-58
2022/05/24 02:07:22;;;;;;;1.73;1.20;;;;;;;;;;5056750;28;20070;-58
2022/05/24 02:09:53;;;;;;;2.28;1.10;;;;;;;;;;5056341;28;20025;-59
2022/05/24 02:12:51;;;;;;;1.55;1.10;;;;;;;;;;5045724;28;20326;-58
2022/05/24 02:15:20;;;;;;;2.60;1.60;;;;;;;;;;5042239;28;20036;-58
2022/05/24 02:18:07;;;;;;;1.30;1.20;;;;;;;;;;5049379;28;20025;-58
2022/05/24 02:20:39;;;;;;;3.47;1.50;;;;;;;;;;5047838;28;20132;-58
2022/05/24 02:23:04;;;;;;;1.42;1.20;;;;;;;;;;5049559;28;20534;-58
2022/05/24 02:25:38;;;;;;;2.15;1.10;;;;;;;;;;5044833;28;20037;-58
2022/05/24 02:28:08;;;;;;;2.58;1.30;;;;;;;;;;5050567;28;20043;-58
2022/05/24 02:30:35;;;;;;;3.13;1.42;;;;;;;;;;5049090;28;20373;-58
2022/05/24 02:33:01;;;;;;;1.65;1.40;;;;;;;;;;5042717;28;20025;-57
2022/05/24 02:35:27;;;;;;;4.25;1.40;;;;;;;;;;5047514;28;20035;-58
2022/05/24 02:37:52;;;;;;;5.03;1.33;;;;;;;;;;5048279;28;20446;-58
2022/05/24 02:43:01;;;;;;;2.80;1.40;;;;;;;;;;5048682;28;20150;-58
2022/05/24 02:45:27;;;;;;;2.90;1.40;;;;;;;;;;5051354;28;20028;-58
2022/05/24 02:47:52;;;;;;;2.75;1.35;;;;;;;;;;5047063;28;20184;-58
2022/05/24 02:50:20;;;;;;;3.38;2.20;;;;;;;;;;5051685;28;20032;-58
2022/05/24 02:52:46;;;;;;;5.07;1.70;;;;;;;;;;5051674;28;20025;-58
2022/05/24 02:55:13;;;;;;;3.13;1.25;;;;;;;;;;5049046;28;20052;-58
2022/05/24 02:57:40;;;;;;;4.50;1.70;;;;;;;;;;5045642;28;20047;-59
2022/05/24 03:00:27;;;;;;;4.82;1.80;;;;;;;;;;5047682;28;20513;-58
2022/05/24 03:02:53;;;;;;;3.90;1.60;;;;;;;;;;5049278;28;20032;-58
2022/05/24 03:05:19;;;;;;;2.15;1.40;;;;;;;;;;5037549;28;20035;-57
2022/05/24 03:10:31;;;;;;;3.70;2.10;;;;;;;;;;5045418;28;20426;-58
2022/05/24 03:15:42;;;;;;;5.13;1.40;;;;;;;;;;5044689;28;20060;-58
2022/05/24 03:18:11;;;;;;;2.22;1.52;;;;;;;;;;5048935;28;20032;-58
2022/05/24 03:20:37;;;;;;;3.25;1.63;;;;;;;;;;5046929;28;20107;-58
2022/05/24 03:23:03;;;;;;;4.88;2.63;;;;;;;;;;5048454;28;20083;-58
2022/05/24 03:25:31;;;;;;;2.80;2.20;;;;;;;;;;5046112;28;20095;-58
2022/05/24 03:27:56;;;;;;;2.00;1.50;;;;;;;;;;5042295;28;20456;-58
2022/05/24 03:30:22;;;;;;;5.18;1.63;;;;;;;;;;5047739;28;20085;-59
2022/05/24 03:32:49;;;;;;;2.53;1.30;;;;;;;;;;5050554;28;20423;-58
2022/05/24 03:35:15;;;;;;;2.83;1.50;;;;;;;;;;5043932;28;20029;-59
2022/05/24 03:37:41;;;;;;;3.35;1.50;;;;;;;;;;5044560;28;20116;-58
2022/05/24 03:40:09;;;;;;;8.38;3.75;;;;;;;;;;5049643;28;20028;-58
2022/05/24 03:42:35;;;;;;;6.03;3.35;;;;;;;;;;5041084;28;20444;-58
2022/05/24 03:45:01;;;;;;;5.10;2.80;;;;;;;;;;5040221;28;20037;-58
2022/05/24 03:47:27;;;;;;;3.30;2.20;;;;;;;;;;5049470;28;20502;-58
2022/05/24 03:49:52;;;;;;;5.78;2.10;;;;;;;;;;5050556;28;20511;-57
2022/05/24 03:52:18;;;;;;;3.78;2.25;;;;;;;;;;5051184;28;20029;-59
2022/05/24 03:54:44;;;;;;;8.43;4.22;;;;;;;;;;5046680;28;20015;-60
2022/05/24 03:59:53;;;;;;;6.00;3.78;;;;;;;;;;5048865;28;20395;-58
2022/05/24 04:02:19;;;;;;;4.47;2.60;;;;;;;;;;5052745;28;20020;-59
2022/05/24 04:04:44;;;;;;;4.47;3.22;;;;;;;;;;5051659;28;20431;-58
2022/05/24 04:07:10;;;;;;;3.22;2.42;;;;;;;;;;5048711;28;20123;-59
2022/05/24 04:09:35;;;;;;;3.88;2.35;;;;;;;;;;5043487;28;20040;-58
2022/05/24 04:12:02;;;;;;;5.90;2.40;;;;;;;;;;5055300;28;20033;-59
2022/05/24 04:14:33;;;;;;;6.03;2.95;;;;;;;;;;5040248;28;20135;-59
2022/05/24 04:16:59;;;;;;;6.00;3.33;;;;;;;;;;5046055;28;20063;-59
2022/05/24 04:19:24;;;;;;;4.20;2.65;;;;;;;;;;5047457;28;20025;-58
2022/05/24 04:21:50;;;;;;;5.10;2.63;;;;;;;;;;5042107;28;20029;-58
2022/05/24 04:24:15;;;;;;;5.50;2.60;;;;;;;;;;5045282;28;20120;-59
2022/05/24 04:26:41;;;;;;;3.20;2.20;;;;;;;;;;5047875;28;20033;-58
2022/05/24 04:29:07;;;;;;;4.43;2.40;;;;;;;;;;5048032;28;20033;-58
2022/05/24 04:31:32;;;;;;;3.40;2.50;;;;;;;;;;5048333;28;20494;-58
2022/05/24 04:33:58;;;;;;;5.53;2.70;;;;;;;;;;5047376;28;20471;-58
2022/05/24 04:36:23;;;;;;;3.25;2.47;;;;;;;;;;5046329;28;20616;-58
2022/05/24 04:38:48;;;;;;;3.58;2.30;;;;;;;;;;5048908;28;20389;-58
2022/05/24 04:43:58;;;;;;;2.08;1.90;;;;;;;;;;5045943;28;20047;-58
2022/05/24 04:46:23;;;;;;;2.45;2.10;;;;;;;;;;5050301;28;20466;-58
2022/05/24 04:48:49;;;;;;;5.07;2.92;;;;;;;;;;5052012;28;20021;-58
2022/05/24 04:51:14;;;;;;;3.47;2.35;;;;;;;;;;5048390;28;20036;-58
2022/05/24 04:53:40;;;;;;;2.40;2.20;;;;;;;;;;5047124;28;20487;-58
2022/05/24 04:56:05;;;;;;;5.13;2.00;;;;;;;;;;5048251;28;20072;-58
2022/05/24 04:58:31;;;;;;;2.15;1.95;;;;;;;;;;5054689;28;20025;-58
2022/05/24 05:00:56;;;;;;;3.80;2.00;;;;;;;;;;5051038;28;20368;-58
2022/05/24 05:03:22;;;;;;;3.90;2.30;;;;;;;;;;5050345;28;20033;-58
2022/05/24 05:05:49;;;;;;;3.08;2.00;;;;;;;;;;5053123;28;20475;-58
2022/05/24 05:08:16;;;;;;;3.95;2.17;;;;;;;;;;5052443;28;20063;-58
2022/05/24 05:10:41;;;;;;;3.40;2.25;;;;;;;;;;5047009;28;20029;-58
2022/05/24 05:13:07;;;;;;;3.05;2.30;;;;;;;;;;5045846;28;20025;-58
2022/05/24 05:15:35;;;;;;;3.67;2.47;;;;;;;;;;5047144;28;20161;-58
2022/05/24 05:18:12;;;;;;;6.20;2.38;;;;;;;;;;5050636;28;20036;-58
2022/05/24 05:20:39;;;;;;;6.57;2.30;;;;;;;;;;5050172;28;20044;-58
2022/05/24 05:23:13;;;;;;;4.38;2.40;;;;;;;;;;5049670;28;20040;-58
2022/05/24 05:25:41;;;;;;;3.97;2.65;;;;;;;;;;5050247;28;20399;-58
2022/05/24 05:28:07;;;;;;;4.15;2.15;;;;;;;;;;5050347;28;20029;-58
2022/05/24 05:33:17;;;;;;;4.65;2.63;;;;;;;;;;5052401;28;20195;-58
2022/05/24 05:35:44;;;;;;;6.82;2.60;;;;;;;;;;5048861;28;20526;-58
2022/05/24 05:38:10;;;;;;;2.70;2.40;;;;;;;;;;5052451;28;20074;-58
2022/05/24 05:40:36;;;;;;;2.95;2.30;;;;;;;;;;5053543;28;20033;-58
2022/05/24 05:43:01;;;;;;;4.88;2.88;;;;;;;;;;5052363;28;20525;-58
2022/05/24 05:45:27;;;;;;;4.60;3.13;;;;;;;;;;5048529;28;20037;-59
2022/05/24 05:47:53;;;;;;;3.90;2.67;;;;;;;;;;5053383;28;20036;-58
2022/05/24 05:50:20;;;;;;;4.13;2.40;;;;;;;;;;5043211;28;20025;-58
2022/05/24 05:52:46;;;;;;;3.92;2.70;;;;;;;;;;5052483;28;20071;-58
2022/05/24 05:55:12;;;;;;;6.93;2.83;;;;;;;;;;5054347;28;20036;-58
2022/05/24 05:57:38;;;;;;;6.25;2.75;;;;;;;;;;5051268;28;20056;-58
2022/05/24 06:00:05;;;;;;;3.72;2.40;;;;;;;;;;5057657;28;20104;-58
2022/05/24 06:02:31;;;;;;;5.95;2.78;;;;;;;;;;5055656;28;20029;-58
2022/05/24 06:04:56;;;;;;;4.55;2.35;;;;;;;;;;5059601;28;20102;-58
2022/05/24 06:07:23;;;;;;;5.28;2.30;;;;;;;;;;5055483;28;20036;-58
2022/05/24 06:09:49;;;;;;;2.55;2.25;;;;;;;;;;5054765;28;20094;-58
2022/05/24 06:12:15;;;;;;;2.85;2.30;;;;;;;;;;5047257;28;20037;-58
2022/05/24 06:14:40;;;;;;;6.63;2.78;;;;;;;;;;5048496;28;20032;-58
2022/05/24 06:17:05;;;;;;;3.72;2.28;;;;;;;;;;5048285;28;20029;-58
2022/05/24 06:19:31;;;;;;;3.55;2.28;;;;;;;;;;5048132;28;20025;-58
2022/05/24 06:21:56;;;;;;;4.60;2.38;;;;;;;;;;5049583;28;20458;-58
2022/05/24 06:24:22;;;;;;;2.40;2.20;;;;;;;;;;5047975;28;20472;-58
2022/05/24 06:26:50;;;;;;;4.82;2.45;;;;;;;;;;5048121;28;20117;-58
2022/05/24 06:29:16;;;;;;;4.25;2.45;;;;;;;;;;5051078;28;20523;-58
2022/05/24 06:31:44;;;;;;;3.92;2.55;;;;;;;;;;5050061;28;20480;-58
2022/05/24 06:34:11;;;;;;;3.83;2.35;;;;;;;;;;5049573;28;20108;-58
2022/05/24 06:36:36;;;;;;;5.68;2.95;;;;;;;;;;5052753;28;20066;-58
2022/05/24 06:39:02;;;;;;;5.85;3.10;;;;;;;;;;5051692;28;20021;-58
2022/05/24 06:41:28;;;;;;;5.50;3.35;;;;;;;;;;5051733;28;20063;-58
2022/05/24 06:43:53;;;;;;;4.20;2.28;;;;;;;;;;5047415;28;20056;-59
2022/05/24 06:46:18;;;;;;;4.90;2.47;;;;;;;;;;5054272;28;20029;-58
2022/05/24 06:48:44;;;;;;;5.03;2.92;;;;;;;;;;5051713;28;21434;-59
2022/05/24 06:51:13;;;;;;;3.35;2.22;;;;;;;;;;5053745;28;20072;-58
2022/05/24 06:53:40;;;;;;;2.92;2.35;;;;;;;;;;5051833;28;20073;-58
2022/05/24 06:56:07;;;;;;;5.07;2.10;;;;;;;;;;5045525;28;20533;-58
2022/05/24 06:58:33;;;;;;;3.15;2.53;;;;;;;;;;5052898;28;20035;-58
2022/05/24 07:03:44;;;;;;;6.10;2.95;;;;;;;;;;5048306;28;20045;-58
2022/05/24 07:06:12;;;;;;;3.42;2.17;;;;;;;;;;5049284;28;20491;-58
2022/05/24 07:08:42;;;;;;;2.83;2.03;;;;;;;;;;5053967;28;20368;-58
2022/05/24 07:11:07;;;;;;;3.97;2.10;;;;;;;;;;5048972;28;20040;-58
2022/05/24 07:13:33;;;;;;;4.07;2.38;;;;;;;;;;5046162;28;20025;-58
2022/05/24 07:15:58;;;;;;;3.63;2.13;;;;;;;;;;5046509;28;20009;-58
2022/05/24 07:18:26;;;;;;;4.32;2.28;;;;;;;;;;5048756;28;20020;-58
2022/05/24 07:20:52;;;;;;;3.53;1.85;;;;;;;;;;5048428;28;20028;-58
2022/05/24 07:23:21;;;;;;;3.47;1.63;;;;;;;;;;5047954;28;20353;-58
2022/05/24 07:25:47;;;;;;;2.70;1.52;;;;;;;;;;5047919;28;20024;-58
2022/05/24 07:28:18;;;;;;;4.90;1.58;;;;;;;;;;5047141;28;20166;-59
2022/05/24 07:30:44;;;;;;;5.72;1.55;;;;;;;;;;5050202;28;20036;-58
2022/05/24 07:33:10;;;;;;;3.25;1.55;;;;;;;;;;5050332;28;20054;-58
2022/05/24 07:35:37;;;;;;;4.15;1.98;;;;;;;;;;5050441;28;20090;-58
2022/05/24 07:38:06;;;;;;;5.22;2.10;;;;;;;;;;5050042;28;20020;-59
2022/05/24 07:46:06;;;;;;;7.38;1.80;;;;;;;;;;5050990;28;20024;-58
2022/05/24 07:48:31;;;;;;;3.10;1.60;;;;;;;;;;5051045;28;20024;-58
2022/05/24 07:50:57;;;;;;;2.13;1.30;;;;;;;;;;5053198;28;20076;-58
2022/05/24 07:53:22;;;;;;;3.20;1.30;;;;;;;;;;5047654;28;20044;-58
2022/05/24 07:55:48;;;;;;;5.55;1.60;;;;;;;;;;5053854;28;20009;-58
2022/05/24 07:58:14;;;;;;;2.30;1.23;;;;;;;;;;5055433;28;20024;-58
2022/05/24 08:00:40;;;;;;;1.05;0.80;;;;;;;;;;5055312;28;20029;-58
2022/05/24 08:03:06;;;;;;;4.13;1.63;;;;;;;;;;5058886;28;20017;-59
2022/05/24 08:05:33;;;;;;;2.45;1.20;;;;;;;;;;5047259;28;20061;-58
2022/05/24 08:08:00;;;;;;;1.88;1.30;;;;;;;;;;5047903;28;20504;-58
2022/05/24 08:10:28;;;;;;;2.05;1.00;;;;;;;;;;5045529;28;20048;-58
2022/05/24 08:12:54;;;;;;;2.08;1.23;;;;;;;;;;5047724;28;20024;-59
2022/05/24 08:15:19;;;;;;;3.63;1.30;;;;;;;;;;5046518;28;20025;-59
2022/05/24 08:17:45;;;;;;;2.65;1.42;;;;;;;;;;5048218;28;20514;-59
2022/05/24 08:20:12;;;;;;;1.90;1.70;;;;;;;;;;5047435;28;20053;-58
2022/05/24 08:22:38;;;;;;;4.47;2.20;;;;;;;;;;5038608;28;20086;-58
2022/05/24 08:25:10;;;;;;;3.13;1.20;;;;;;;;;;5048164;28;20556;-59
2022/05/24 08:27:36;;;;;;;2.05;1.00;;;;;;;;;;5049311;28;20108;-58
2022/05/24 08:30:01;;;;;;;0.95;0.90;;;;;;;;;;5047339;28;20428;-58
2022/05/24 08:32:28;;;;;;;0.75;0.75;;;;;;;;;;5053220;28;20131;-59
2022/05/24 08:34:53;;;;;;;1.48;1.00;;;;;;;;;;5047709;28;20045;-58
2022/05/24 08:37:19;;;;;;;2.45;1.10;;;;;;;;;;5049958;28;20025;-59
2022/05/24 08:39:44;;;;;;;0.80;0.80;;;;;;;;;;5050057;28;20155;-58
2022/05/24 08:42:27;;;;;;;1.10;1.00;;;;;;;;;;5053404;28;20100;-58
2022/05/24 08:50:47;;;;;;;0.52;0.50;;;;;;;;;;5057600;28;20105;-58
2022/05/24 08:53:23;;;;;;;1.35;0.55;;;;;;;;;;5044249;28;20499;-58
2022/05/24 08:55:49;;;;;;;2.60;0.70;;;;;;;;;;5053103;28;20412;-58
2022/05/24 08:58:55;;;;;;;0.73;0.73;;;;;;;;;;5062180;28;20020;-58
2022/05/24 09:01:32;;;;;;;1.05;0.50;;;;;;;;;;5057068;28;20107;-58
2022/05/24 09:04:06;;;;;;;0.73;0.70;;;;;;;;;;5047252;28;20055;-58
2022/05/24 09:06:31;;;;;;;0.52;0.52;;;;;;;;;;5059981;28;20446;-58
2022/05/24 09:09:39;;;;;;;1.20;0.40;;;;;;;;;;5047684;28;20020;-58
2022/05/24 09:12:14;;;;;;;1.58;0.60;;;;;;;;;;5039886;28;20037;-58
2022/05/24 09:15:10;;;;;;;0.73;0.57;;;;;;;;;;5050378;28;20020;-59
2022/05/24 09:18:11;;;;;;;0.77;0.70;;;;;;;;;;5051409;28;20036;-58
2022/05/24 09:20:42;;;;;;;0.80;0.80;;;;;;;;;;5043510;28;20025;-58
2022/05/24 09:23:10;;;;;;;3.47;0.70;;;;;;;;;;5050855;28;20385;-58
2022/05/24 09:25:36;;;;;;;1.25;0.70;;;;;;;;;;5044946;28;20028;-58
2022/05/24 09:28:02;;;;;;;1.63;0.90;;;;;;;;;;5052638;28;20028;-58
2022/05/24 09:30:31;;;;;;;0.80;0.70;;;;;;;;;;5052830;28;20504;-58
2022/05/24 09:33:24;;;;;;;0.90;0.60;;;;;;;;;;5051366;28;20029;-58
2022/05/24 09:35:57;;;;;;;4.90;1.67;;;;;;;;;;5044291;28;20032;-59
2022/05/24 09:38:32;;;;;;;1.42;1.00;;;;;;;;;;5053097;28;20043;-58
2022/05/24 09:41:07;;;;;;;1.40;0.90;;;;;;;;;;5052545;28;20024;-58
2022/05/24 09:43:36;;;;;;;1.52;1.40;;;;;;;;;;5056844;28;20081;-58
2022/05/24 09:46:07;;;;;;;1.42;1.00;;;;;;;;;;5054571;28;20017;-58
2022/05/24 09:48:37;;;;;;;2.47;1.00;;;;;;;;;;5055496;28;20253;-59
2022/05/24 09:51:10;;;;;;;0.88;0.60;;;;;;;;;;5058104;28;20016;-58
2022/05/24 09:53:48;;;;;;;4.05;0.90;;;;;;;;;;5058216;28;20694;-58
2022/05/24 09:56:29;;;;;;;1.70;0.60;;;;;;;;;;5054541;28;20033;-58
2022/05/24 09:59:00;;;;;;;7.57;0.80;;;;;;;;;;5059648;28;20067;-59
2022/05/24 10:01:35;;;;;;;0.60;0.60;;;;;;;;;;5060034;28;20028;-58
2022/05/24 10:04:33;;;;;;;1.20;0.80;;;;;;;;;;5056809;28;20072;-58
2022/05/24 10:07:08;;;;;;;1.45;0.70;;;;;;;;;;5040623;28;20025;-58
2022/05/24 10:10:10;;;;;;;1.92;0.80;;;;;;;;;;5049102;28;20543;-59
2022/05/24 10:12:52;;;;;;;1.27;0.70;;;;;;;;;;5049327;28;20025;-58
2022/05/24 10:15:29;;;;;;;1.08;0.70;;;;;;;;;;5048824;28;20116;-59
2022/05/24 10:18:08;;;;;;;1.35;0.70;;;;;;;;;;5050636;28;20475;-58
2022/05/24 10:21:09;;;;;;;2.30;0.70;;;;;;;;;;5052402;28;20131;-59
2022/05/24 10:23:41;;;;;;;2.47;0.60;;;;;;;;;;5050180;28;20032;-58
2022/05/24 10:26:41;;;;;;;2.72;0.73;;;;;;;;;;5047858;28;20029;-58
2022/05/24 10:29:09;;;;;;;1.75;0.73;;;;;;;;;;5052174;28;20412;-59
2022/05/24 10:31:57;;;;;;;1.17;0.80;;;;;;;;;;5052015;28;20438;-58
2022/05/24 10:40:38;;;;;;;1.50;1.20;;;;;;;;;;5049735;28;20120;-59
2022/05/24 10:43:06;;;;;;;1.85;1.63;;;;;;;;;;5053678;28;20032;-59
2022/05/24 10:45:52;;;;;;;2.92;0.60;;;;;;;;;;5051996;28;20048;-59
2022/05/24 10:48:45;;;;;;;0.95;0.70;;;;;;;;;;5049091;28;20116;-59
2022/05/24 10:51:48;;;;;;;3.03;0.77;;;;;;;;;;5041530;28;20484;-59
2022/05/24 10:54:16;;;;;;;2.08;0.80;;;;;;;;;;5049211;28;20035;-59
2022/05/24 10:56:53;;;;;;;2.90;0.70;;;;;;;;;;5056586;28;20024;-59
2022/05/24 10:59:48;;;;;;;1.70;0.60;;;;;;;;;;5055970;28;20066;-59
2022/05/24 11:03:04;;;;;;;1.65;0.95;;;;;;;;;;5048945;28;20060;-59
2022/05/24 11:05:42;;;;;;;1.77;0.85;;;;;;;;;;5052556;28;20055;-59
2022/05/24 11:08:45;;;;;;;4.33;0.83;;;;;;;;;;5048169;28;20021;-59
2022/05/24 11:11:33;;;;;;;0.82;0.80;;;;;;;;;;5048617;28;20021;-59
2022/05/24 11:14:17;;;;;;;1.90;0.63;;;;;;;;;;5042000;28;20373;-59
2022/05/24 11:16:46;;;;;;;0.60;0.52;;;;;;;;;;5048231;28;20017;-59
2022/05/24 11:19:24;;;;;;;1.50;0.80;;;;;;;;;;5047132;28;20130;-59
2022/05/24 11:22:07;;;;;;;2.25;1.40;;;;;;;;;;5049753;28;20029;-59
2022/05/24 11:24:55;;;;;;;1.00;0.90;;;;;;;;;;5049403;28;20467;-59
2022/05/24 11:28:06;;;;;;;1.30;0.70;;;;;;;;;;5050887;28;20044;-59
2022/05/24 11:30:41;;;;;;;1.38;0.82;;;;;;;;;;5050220;28;20447;-59
2022/05/24 11:33:10;;;;;;;0.60;0.60;;;;;;;;;;5050025;28;20030;-59
2022/05/24 11:35:39;;;;;;;1.92;0.70;;;;;;;;;;5051866;28;20025;-59
2022/05/24 11:38:22;;;;;;;1.50;0.70;;;;;;;;;;5051960;28;20029;-59
2022/05/24 11:40:48;;;;;;;2.53;0.77;;;;;;;;;;5050025;28;20033;-59
2022/05/24 11:43:38;;;;;;;1.75;0.70;;;;;;;;;;5050491;28;20024;-59
2022/05/24 11:46:05;;;;;;;2.97;1.75;;;;;;;;;;5047047;28;20559;-58
2022/05/24 11:48:40;;;;;;;1.40;0.70;;;;;;;;;;5052777;28;20112;-58
2022/05/24 11:51:28;;;;;;;1.90;0.95;;;;;;;;;;5046359;28;20024;-58
2022/05/24 11:53:54;;;;;;;2.67;0.80;;;;;;;;;;5049851;28;20041;-59
2022/05/24 11:56:21;;;;;;;0.88;0.55;;;;;;;;;;5054262;28;20028;-58
2022/05/24 11:59:01;;;;;;;1.08;0.70;;;;;;;;;;5048609;28;20076;-59
2022/05/24 12:01:26;;;;;;;2.88;0.73;;;;;;;;;;5058217;28;20109;-58
2022/05/24 12:10:03;;;;;;;2.05;0.80;;;;;;;;;;5047754;28;20082;-58
2022/05/24 12:12:29;;;;;;;1.00;0.60;;;;;;;;;;5046086;28;20025;-58
2022/05/24 12:15:13;;;;;;;1.63;0.80;;;;;;;;;;5047862;28;20029;-59
2022/05/24 12:17:39;;;;;;;3.70;0.90;;;;;;;;;;5048443;28;20039;-59
2022/05/24 12:20:25;;;;;;;7.55;1.45;;;;;;;;;;5047919;28;20025;-58
2022/05/24 12:23:06;;;;;;;1.52;0.73;;;;;;;;;;5041383;28;20033;-59
2022/05/24 12:25:50;;;;;;;2.28;1.40;;;;;;;;;;5051572;28;20514;-59
2022/05/24 12:28:16;;;;;;;1.75;0.70;;;;;;;;;;5054948;28;20120;-59
2022/05/24 12:30:47;;;;;;;1.50;0.63;;;;;;;;;;5055695;28;20020;-59
2022/05/24 12:33:25;;;;;;;1.75;0.70;;;;;;;;;;5055074;28;20032;-58
2022/05/24 12:36:08;;;;;;;3.17;1.73;;;;;;;;;;5051970;28;20078;-58
2022/05/24 12:38:36;;;;;;;1.40;1.00;;;;;;;;;;5052928;28;20440;-58
2022/05/24 12:41:15;;;;;;;1.25;0.70;;;;;;;;;;5050175;28;20497;-58
2022/05/24 12:44:09;;;;;;;;;;;;;;;;;;5044019;28;20484;-58
2022/05/24 12:46:35;;;;;;;1.15;0.60;;;;;;;;;;5046070;28;19912;-58
2022/05/24 12:49:07;;;;;;;2.65;0.80;;;;;;;;;;5051877;28;20083;-58
2022/05/24 12:51:32;;;;;;;2.25;0.75;;;;;;;;;;5058101;28;20144;-58
2022/05/24 12:54:12;;;;;;;1.63;0.82;;;;;;;;;;5060930;28;20103;-58
2022/05/24 12:56:38;;;;;;;1.55;0.70;;;;;;;;;;5057983;28;20089;-58
2022/05/24 12:59:11;;;;;;;2.65;0.70;;;;;;;;;;5058702;28;20120;-58
2022/05/24 13:01:41;;;;;;;1.17;0.65;;;;;;;;;;5056652;28;20025;-58
2022/05/24 13:04:23;;;;;;;0.95;0.50;;;;;;;;;;5057955;28;20033;-58
2022/05/24 13:06:48;;;;;;;1.17;0.75;;;;;;;;;;5049516;28;20025;-58
2022/05/24 13:09:20;;;;;;;1.67;0.82;;;;;;;;;;5046621;28;20025;-58
2022/05/24 13:11:50;;;;;;;1.00;0.70;;;;;;;;;;5050290;28;20086;-58
2022/05/24 13:14:49;;;;;;;2.15;0.50;;;;;;;;;;5051440;28;20623;-58
2022/05/24 13:17:18;;;;;;;1.70;0.70;;;;;;;;;;5049683;28;20021;-58
2022/05/24 13:20:01;;;;;;;1.63;0.80;;;;;;;;;;5053228;28;20055;-58
2022/05/24 13:22:38;;;;;;;1.63;0.80;;;;;;;;;;5051657;28;20025;-58
2022/05/24 13:25:09;;;;;;;1.38;0.70;;;;;;;;;;5050983;28;20039;-58
2022/05/24 13:27:58;;;;;;;2.80;0.60;;;;;;;;;;5054837;28;20496;-59
2022/05/24 13:33:46;;;;;;;2.42;0.77;;;;;;;;;;5052577;28;20059;-59
2022/05/24 13:36:39;;;;;;;1.48;0.52;;;;;;;;;;5050922;28;20035;-58
2022/05/24 13:39:04;;;;;;;1.42;0.60;;;;;;;;;;5052998;28;20030;-58
2022/05/24 13:41:36;;;;;;;1.50;0.70;;;;;;;;;;5054757;28;20097;-58
2022/05/24 13:44:22;;;;;;;1.73;0.80;;;;;;;;;;5055103;28;20028;-59
2022/05/24 13:46:52;;;;;;;0.93;0.80;;;;;;;;;;5053258;28;20056;-59
2022/05/24 13:49:34;;;;;;;1.55;0.80;;;;;;;;;;5061381;28;20062;-59
2022/05/24 13:52:29;;;;;;;0.70;0.70;;;;;;;;;;5056672;28;20029;-59
2022/05/24 13:55:13;;;;;;;2.15;0.70;;;;;;;;;;5049871;28;20068;-58
2022/05/24 13:57:52;;;;;;;1.10;0.60;;;;;;;;;;5057265;28;20111;-58
2022/05/24 14:00:26;;;;;;;0.80;0.50;;;;;;;;;;5056564;28;20488;-58
2022/05/24 14:03:09;;;;;;;0.95;0.70;;;;;;;;;;5041527;28;20129;-58
2022/05/24 14:05:36;;;;;;;2.25;0.70;;;;;;;;;;5047560;28;20029;-59
2022/05/24 14:08:03;;;;;;;0.98;0.60;;;;;;;;;;5049245;28;20065;-58
2022/05/24 14:10:29;;;;;;;2.17;0.70;;;;;;;;;;5046606;28;20025;-59
2022/05/24 14:12:55;;;;;;;2.15;0.70;;;;;;;;;;5050483;28;20025;-58
2022/05/24 14:15:21;;;;;;;1.33;0.50;;;;;;;;;;5049640;28;20040;-58
2022/05/24 14:17:48;;;;;;;1.17;0.57;;;;;;;;;;5050693;28;20021;-59
2022/05/24 14:20:14;;;;;;;0.82;0.60;;;;;;;;;;5048013;28;20029;-58
2022/05/24 14:22:40;;;;;;;1.02;0.50;;;;;;;;;;5052390;28;20446;-58
2022/05/24 14:25:06;;;;;;;1.67;0.63;;;;;;;;;;5051136;28;20021;-59
2022/05/24 14:27:33;;;;;;;3.40;1.00;;;;;;;;;;5051101;28;20020;-59
2022/05/24 14:29:58;;;;;;;1.90;0.60;;;;;;;;;;5050325;28;20460;-59
2022/05/24 14:32:26;;;;;;;0.90;0.40;;;;;;;;;;5056485;28;20124;-59
2022/05/24 14:34:51;;;;;;;1.00;0.55;;;;;;;;;;5046537;28;20021;-59
2022/05/24 14:37:18;;;;;;;1.83;0.60;;;;;;;;;;5049456;28;20383;-59
2022/05/24 14:39:44;;;;;;;1.90;0.60;;;;;;;;;;5051129;28;20373;-59
2022/05/24 14:42:09;;;;;;;0.95;0.63;;;;;;;;;;5056800;28;20031;-59
2022/05/24 14:44:35;;;;;;;0.68;0.50;;;;;;;;;;5055566;28;20040;-59
2022/05/24 14:47:02;;;;;;;1.67;0.80;;;;;;;;;;5046533;28;20377;-59
2022/05/24 14:49:27;;;;;;;2.67;1.10;;;;;;;;;;5054003;28;20377;-58
2022/05/24 14:52:02;;;;;;;3.38;2.13;;;;;;;;;;5058671;28;20087;-59
2022/05/24 14:54:28;;;;;;;3.33;0.88;;;;;;;;;;5054946;28;20029;-59
2022/05/24 14:56:54;;;;;;;3.80;0.80;;;;;;;;;;5054343;28;20051;-59
2022/05/24 14:59:22;;;;;;;1.98;0.70;;;;;;;;;;5055061;28;20040;-59
2022/05/24 15:01:48;;;;;;;1.60;0.80;;;;;;;;;;5055575;28;20047;-59
2022/05/24 15:04:14;;;;;;;1.83;0.80;;;;;;;;;;5048052;28;20310;-59
2022/05/24 15:06:44;;;;;;;2.53;1.08;;;;;;;;;;5047389;28;20064;-59
2022/05/24 15:17:34;;;;;;;1.00;0.88;;;;;;;;;;5047616;28;20083;-59
2022/05/24 15:20:06;;;;;;;2.47;1.00;;;;;;;;;;5048545;28;20032;-59
2022/05/24 15:22:34;;;;;;;2.03;1.20;;;;;;;;;;5047429;28;20117;-59
2022/05/24 15:25:02;;;;;;;2.22;0.90;;;;;;;;;;5046215;28;20029;-59
2022/05/24 15:27:28;;;;;;;1.90;0.80;;;;;;;;;;5048077;28;20025;-59
2022/05/24 15:29:54;;;;;;;1.60;0.70;;;;;;;;;;5050796;28;20025;-58
2022/05/24 15:32:20;;;;;;;1.40;0.80;;;;;;;;;;5049608;28;20472;-59
2022/05/24 15:34:45;;;;;;;1.52;0.70;;;;;;;;;;5049129;28;20598;-58
2022/05/24 15:37:11;;;;;;;1.55;0.60;;;;;;;;;;5048483;28;20062;-59
2022/05/24 15:39:36;;;;;;;2.40;0.57;;;;;;;;;;5053876;28;20078;-59
2022/05/24 15:42:06;;;;;;;2.65;0.50;;;;;;;;;;5051294;28;20079;-59
2022/05/24 15:44:32;;;;;;;0.90;0.80;;;;;;;;;;5051582;28;20408;-59
2022/05/24 15:46:57;;;;;;;1.88;0.80;;;;;;;;;;5056017;28;20032;-58
2022/05/24 15:49:27;;;;;;;1.02;0.70;;;;;;;;;;5050666;28;20028;-58
2022/05/24 15:51:53;;;;;;;2.13;0.68;;;;;;;;;;5046884;28;20460;-59
2022/05/24 15:54:18;;;;;;;1.42;0.80;;;;;;;;;;5049884;28;20086;-59
2022/05/24 15:56:44;;;;;;;1.63;0.80;;;;;;;;;;5047691;28;20032;-59
2022/05/24 15:59:10;;;;;;;3.83;0.93;;;;;;;;;;5046454;28;20479;-59
2022/05/24 16:01:35;;;;;;;2.95;1.27;;;;;;;;;;5046545;28;20047;-59
2022/05/24 16:04:00;;;;;;;1.30;0.90;;;;;;;;;;5043861;28;20503;-59